Nearby METAR Reports

 

KORH - Worcester, Massachusetts, USA
Distance from station: NW 4mi, 7km
Updated: Mon, 15-Oct-2018 6:54pm EDT
Overcast
Overcast
 Wind from SW
Wind: SW 16 mph , 26 km/h, Gust: 23 mph , 37 km/h
Temperature: 61°F , 16°C
Dew Point: 59°F , 15°C
Humidity: 94%
Barometer: 29.81 inHg , 1009.5 hPa
Clouds: Overcast
Visibility: 10 miles , 16 km
Cloud details: Overcast 700 ft
2018/10/15 22:54 KORH 152254Z 22014G20KT 10SM OVC007 16/15 A2981 RMK AO2 RAB2159E51 CIG 005V011 SLP098 P0002 T01560150
KBOS - Boston, Massachusetts, USA
Distance from station: ENE 42mi, 68km
Updated: Mon, 15-Oct-2018 6:54pm EDT
Light rain, Overcast
Light rain, Overcast
 Wind from SSW
Wind: SSW 15 mph , 24 km/h, Gust: 24 mph , 39 km/h
Temperature: 66°F , 19°C
Dew Point: 61°F , 16°C
Humidity: 83%
Barometer: 29.80 inHg , 1009.1 hPa
Summary: Light rain
Clouds: Overcast
Visibility: 10 miles , 16 km
Cloud details: Partly cloudy 1500 ft
Overcast 2300 ft
2018/10/15 22:54 KBOS 152254Z 21013G21KT 10SM -RA SCT015 OVC023 19/16 A2980 RMK AO2 RAB54 SLP090 P0000 T01940161
 
KCQX - Chatham, Massachusetts, USA
Distance from station: SE 102mi, 164km
Updated: Mon, 15-Oct-2018 7:52pm EDT
Overcast
Overcast
 Wind from SSW
Wind: SSW 12 mph , 19 km/h, Gust: 21 mph , 33 km/h
Temperature: 63°F , 17°C
Dew Point: 63°F , 17°C
Humidity: 100%
Barometer: 29.87 inHg , 1011.5 hPa
Clouds: Overcast
Visibility: 8 miles , 13 km
Cloud details: Few Clouds 700 ft
Mostly cloudy 1300 ft
Overcast 1800 ft
2018/10/15 23:52 KCQX 152352Z AUTO 20010G18KT 8SM FEW007 BKN013 OVC018 17/17 A2987 RMK AO2 RAE07 SLP117 P0000 60011 T01720172 10172 20156 56022
KMVY - Marthas Vineyard, Massachusetts, USA
Distance from station: SE 84mi, 135km
Updated: Mon, 15-Oct-2018 6:53pm EDT
Overcast
Overcast
 Wind from SSW
Wind: SSW 16 mph , 26 km/h, Gust: 24 mph , 39 km/h
Temperature: 66°F , 19°C
Dew Point: 66°F , 19°C
Humidity: 100%
Barometer: 29.90 inHg , 1012.5 hPa
Clouds: Overcast
Visibility: 9 miles , 14 km
Cloud details: Few Clouds 500 ft
Mostly cloudy 1600 ft
Overcast 2300 ft
2018/10/15 22:53 KMVY 152253Z 20014G21KT 9SM FEW005 BKN016 OVC023 19/19 A2990 RMK AO2 RAB03E27 SLP125 P0000 T01890189
 
KPVC - Provincetown, Massachusetts, USA
Distance from station: NNW 85mi, 136km
Updated: Mon, 15-Oct-2018 6:56pm EDT
Overcast
Overcast
 Wind from SW
Wind: SW 23 mph , 37 km/h, Gust: 31 mph , 50 km/h
Temperature: 64°F , 18°C
Dew Point: 63°F , 17°C
Humidity: 94%
Barometer: 29.87 inHg , 1011.5 hPa
Clouds: Overcast
Visibility: 10 miles , 16 km
Cloud details: Overcast 1100 ft
2018/10/15 22:56 KPVC 152256Z AUTO 22020G27KT 10SM OVC011 18/17 A2987 RMK AO2 PK WND 22027/2255 SLP113 T01830172
KAQW - Savoy, Massachusetts, USA
Distance from station: NNW 66mi, 106km
Updated: Mon, 15-Oct-2018 7:52pm EDT
Light rain, Mist, Overcast
Light rain, Mist, Overcast
 Wind from W
Wind: W 8 mph , 13 km/h
Temperature: 61°F , 16°C
Dew Point: 59°F , 15°C
Humidity: 94%
Barometer: 29.75 inHg , 1007.5 hPa
Summary: Light rain, Mist
Clouds: Overcast
Visibility: 5 miles , 8 km
Cloud details: Overcast 1800 ft
2018/10/15 23:52 KAQW 152352Z AUTO 27007KT 230V310 5SM -RA BR OVC018 16/15 A2975 RMK AO2 SLP076 P0004 60005 T01610150 10167 20150 56030
 
KIZG - Fryeburg, Maine, USA
Distance from station: NNE 133mi, 214km
Updated: Mon, 15-Oct-2018 6:54pm EDT
Mist, Overcast
Mist, Overcast
 Wind from SE
Wind: SE 3 mph , 6 km/h
Temperature: 46°F , 8°C
Dew Point: 45°F , 7°C
Humidity: 93%
Barometer: 29.76 inHg , 1007.8 hPa
Summary: Mist
Clouds: Overcast
Visibility: 5 miles , 8 km
Cloud details: Partly cloudy 400 ft
Overcast 800 ft
2018/10/15 22:54 KIZG 152254Z AUTO 13003KT 5SM BR SCT004 OVC008 08/07 A2976 RMK AO2 SLP082 T00780072
KMWN - Mt Washington, New Hampshire, USA
Distance from station: NNE 146mi, 234km
Updated: Mon, 15-Oct-2018 6:53pm EDT
Fog, Overcast
Fog, Overcast
 Wind from WSW
Wind: WSW 52 mph , 83 km/h, Gust: 70 mph , 113 km/h
Temperature: 41°F , 5°C
Wind Chill: 27°F , -3°C
Dew Point: 41°F , 5°C
Humidity: 100%
Summary: Fog
Clouds: Overcast
Visibility: 0 miles , 0 km
Cloud details: Overcast 0 ft
2018/10/15 22:53 KMWN 152253Z 25045G61KT 0SM FG VV000 05/05 RMK
 
KBML - Berlin, New Hampshire, USA
Distance from station: NNE 160mi, 257km
Updated: Mon, 15-Oct-2018 7:52pm EDT
Overcast
Overcast
 Wind from calm
Wind: Calm
Temperature: 52°F , 11°C
Dew Point: 50°F , 10°C
Humidity: 94%
Barometer: 29.66 inHg , 1004.4 hPa
Clouds: Overcast
Visibility: 10 miles , 16 km
Cloud details: Overcast 2300 ft
2018/10/15 23:52 KBML 152352Z AUTO 00000KT 10SM OVC023 11/10 A2966 RMK AO2 SLP052 60002 T01060100 10117 20072 58037